Terminal Aerodrome Forecast
Issued by NWS

Home | Current Version | Previous Version | Text Only | Print | Product List | Glossary On
Versions: 1 2 3 4 5 6 7 8 9 10 11 12 13 14 15 16 17 18 19 20 21 22 23 24 25 26 27 28 29
000
FTUS46 KSGX 260257 AAA
TAFSAN
TAF AMD
KSAN 260257Z 2603/2706 VRB04KT P6SM SCT015 SCT200
     FM260600 VRB04KT P6SM OVC013
     FM261700 VRB04KT P6SM SCT015 SCT200
     FM261900 29009KT P6SM SCT015 SCT200
     FM270200 VRB04KT P6SM OVC015=

USA.gov is the U.S. government's official web portal to all federal, state and local government web resources and services.